Погода Свириновкана неделю

Гомельская область, Белоруссия

17 - 23 июля
  • 17июля
    Сегодня
    +21°
    +33°
    Практически безоблачно
    ВремяПогодаТемператураВлажностьДавлениеВетер, м/сВероятность осадков
    00:00Ясно и безоблачно+25°C68 %751 мм1.0 м/с2 %
    03:00Ясно и безоблачно+24°C72 %751 мм1.0 м/с2 %
    06:00Ясно и безоблачно+23°C72 %751 мм1.4 м/с2 %
    09:00Ясно и безоблачно+26°C77 %752 мм0.9 м/с13 %
    12:00Ясно и безоблачно+30°C60 %752 мм1.6 м/с2 %
    15:00Практически безоблачно+33°C46 %751 мм1.4 м/с2 %
    18:00Практически безоблачно+31°C46 %752 мм2.0 м/с6 %
    21:00Ясно и безоблачно+27°C60 %752 мм0.7 м/с2 %
  • 18июля
    Четверг
    +17°
    +25°
    Пасмурно, небольшой дождь
    ВремяПогодаТемператураВлажностьДавлениеВетер, м/сВероятность осадков
    00:00Практически безоблачно+25°C76 %752 мм0.7 м/с2 %
    03:00Небольшая облачность+23°C83 %752 мм0.7 м/с2 %
    06:00Ясно и безоблачно+21°C87 %752 мм1.1 м/с1 %
    09:00Пасмурно, сплошная облачность+22°C91 %753 мм0.7 м/с48 %
    12:00Пасмурно, ливень+23°C78 %753 мм0.8 м/с87 %
    15:00Пасмурно, небольшой дождь+24°C69 %752 мм1.0 м/с63 %
    18:00Небольшая облачность, возможен дождь с грозой+23°C74 %752 мм1.8 м/с68 %
    21:00Практически безоблачно+22°C85 %753 мм0.4 м/с35 %
  • 19июля
    Пятница
    +15°
    +26°
    Практически безоблачно
    ВремяПогодаТемператураВлажностьДавлениеВетер, м/сВероятность осадков
    00:00Ясно и безоблачно+21°C88 %753 мм0.9 м/с3 %
    03:00Ясно и безоблачно+19°C91 %753 мм0.9 м/с2 %
    06:00Ясно и безоблачно+18°C90 %753 мм1.1 м/с2 %
    09:00Практически безоблачно+21°C70 %753 мм1.3 м/с2 %
    12:00Облачно с прояснениями+24°C51 %753 мм1.7 м/с2 %
    15:00Практически безоблачно+25°C40 %752 мм1.9 м/с2 %
    18:00Ясно и безоблачно+24°C39 %751 мм2.2 м/с2 %
    21:00Ясно и безоблачно+21°C53 %751 мм0.7 м/с2 %
  • 20июля
    Суббота
    +15°
    +26°
    Небольшая облачность
    ВремяПогодаТемператураВлажностьДавлениеВетер, м/сВероятность осадков
    00:00Ясно и безоблачно+19°C64 %751 мм0.9 м/с2 %
    03:00Ясно и безоблачно+17°C76 %750 мм0.7 м/с2 %
    06:00Ясно и безоблачно+16°C82 %750 мм0.9 м/с2 %
    09:00Ясно и безоблачно+20°C65 %750 мм0.9 м/с2 %
    12:00Практически безоблачно+23°C48 %749 мм1.5 м/с2 %
    15:00Небольшая облачность+25°C40 %748 мм1.3 м/с2 %
    18:00Небольшая облачность+24°C40 %748 мм1.9 м/с2 %
    21:00Небольшая облачность+22°C50 %747 мм0.6 м/с2 %
  • 21июля
    Воскресенье
    +15°
    +26°
    Ясно и безоблачно
    ВремяПогодаТемператураВлажностьДавлениеВетер, м/сВероятность осадков
    00:00Ясно и безоблачно+19°C58 %748 мм0.7 м/с2 %
    03:00Ясно и безоблачно+17°C72 %747 мм0.5 м/с2 %
    06:00Ясно и безоблачно+16°C81 %747 мм0.6 м/с2 %
    09:00Ясно и безоблачно+20°C53 %747 мм0.6 м/с2 %
    12:00Ясно и безоблачно+24°C41 %747 мм1.5 м/с11 %
    15:00Ясно и безоблачно+26°C36 %746 мм1.4 м/с17 %
    18:00Небольшая облачность+25°C33 %746 мм1.5 м/с18 %
    21:00Ясно и безоблачно+23°C51 %746 мм0.3 м/с6 %
Мы используем cookies
Соглашаюсь